createdAt,value
2023-01-03T00:01:22.413Z,1.54
2023-01-03T00:03:50.928Z,1.64
2023-01-03T00:06:21.001Z,1.61
2023-01-03T00:08:51.648Z,1.54
2023-01-03T00:11:43.997Z,1.53
2023-01-03T00:14:14.150Z,1.60
2023-01-03T00:16:42.536Z,1.70
2023-01-03T00:19:13.088Z,1.57
2023-01-03T00:21:42.634Z,1.66
2023-01-03T00:24:12.691Z,1.70
2023-01-03T00:26:41.928Z,1.63
2023-01-03T00:29:11.807Z,1.55
2023-01-03T00:31:40.815Z,1.62
2023-01-03T00:34:09.840Z,1.75
2023-01-03T00:36:39.251Z,1.82
2023-01-03T00:39:07.870Z,2.05
2023-01-03T00:41:37.149Z,1.91
2023-01-03T00:44:05.619Z,1.88
2023-01-03T00:46:33.649Z,1.86
2023-01-03T00:49:02.575Z,1.77
2023-01-03T00:51:35.111Z,1.70
2023-01-03T00:54:05.515Z,1.63
2023-01-03T00:56:39.168Z,1.80
2023-01-03T00:59:08.085Z,1.55
2023-01-03T01:01:46.599Z,1.71
2023-01-03T01:04:18.511Z,1.78
2023-01-03T01:06:48.931Z,1.65
2023-01-03T01:09:20.312Z,1.81
2023-01-03T01:11:50.707Z,1.95
2023-01-03T01:14:20.864Z,2.03
2023-01-03T01:16:51.649Z,1.69
2023-01-03T01:19:21.236Z,1.65
2023-01-03T01:21:50.251Z,1.61
2023-01-03T01:24:18.504Z,1.66
2023-01-03T01:26:47.047Z,1.71
2023-01-03T01:29:20.222Z,1.84
2023-01-03T01:31:50.079Z,1.87
2023-01-03T01:34:18.722Z,1.78
2023-01-03T01:36:47.826Z,1.98
2023-01-03T01:39:18.935Z,2.01
2023-01-03T01:42:06.197Z,2.09
2023-01-03T01:44:57.875Z,1.96
2023-01-03T01:47:35.130Z,1.88
2023-01-03T01:50:15.349Z,1.86
2023-01-03T01:52:49.395Z,1.89
2023-01-03T01:55:24.855Z,2.22
2023-01-03T01:57:54.583Z,2.16
2023-01-03T02:00:24.491Z,2.20
2023-01-03T02:02:55.228Z,2.18
2023-01-03T02:05:24.489Z,2.20
2023-01-03T02:07:54.168Z,2.27
2023-01-03T02:10:47.907Z,2.16
2023-01-03T02:13:27.651Z,2.39
2023-01-03T02:16:19.315Z,2.34
2023-01-03T02:18:56.169Z,2.50
2023-01-03T02:21:57.883Z,2.41
2023-01-03T02:25:05.519Z,2.54
2023-01-03T02:28:07.080Z,2.60
2023-01-03T02:30:41.947Z,2.63
2023-01-03T02:33:24.685Z,2.79
2023-01-03T02:36:02.777Z,2.82
2023-01-03T02:38:47.250Z,2.73
2023-01-03T02:41:28.329Z,2.67
2023-01-03T02:44:05.872Z,2.83
2023-01-03T02:46:46.042Z,2.77
2023-01-03T02:49:21.923Z,2.91
2023-01-03T02:51:56.320Z,2.94
2023-01-03T02:54:33.553Z,3.08
2023-01-03T02:57:08.128Z,3.03
2023-01-03T02:59:45.848Z,2.96
2023-01-03T03:02:18.913Z,2.71
2023-01-03T03:04:52.938Z,2.77
2023-01-03T03:07:28.445Z,2.87
2023-01-03T03:10:15.194Z,2.85
2023-01-03T03:13:17.567Z,2.54
2023-01-03T03:15:55.172Z,2.88
2023-01-03T03:18:35.002Z,2.99
2023-01-03T03:21:25.122Z,3.68
2023-01-03T03:24:16.076Z,3.94
2023-01-03T03:26:48.292Z,3.39
2023-01-03T03:29:19.066Z,3.38
2023-01-03T03:31:51.662Z,3.55
2023-01-03T03:34:26.649Z,3.52
2023-01-03T03:37:01.177Z,3.18
2023-01-03T03:39:50.224Z,3.24
2023-01-03T03:42:45.337Z,3.15
2023-01-03T03:45:22.155Z,3.19
2023-01-03T03:47:57.741Z,4.41
2023-01-03T03:50:37.440Z,4.60
2023-01-03T03:53:09.423Z,3.97
2023-01-03T03:55:43.222Z,3.72
2023-01-03T03:58:18.525Z,3.93
2023-01-03T04:00:51.316Z,3.74
2023-01-03T04:03:22.655Z,3.66
2023-01-03T04:05:58.989Z,3.83
2023-01-03T04:08:27.204Z,4.24
2023-01-03T04:11:06.061Z,4.89
2023-01-03T04:13:35.219Z,4.71
2023-01-03T04:16:03.214Z,4.39
2023-01-03T04:18:31.650Z,4.45
2023-01-03T04:21:01.381Z,4.02
2023-01-03T04:23:29.196Z,3.91
2023-01-03T04:25:57.055Z,3.89
2023-01-03T04:28:25.347Z,4.05
2023-01-03T04:30:53.611Z,4.03
2023-01-03T04:33:21.473Z,4.73
2023-01-03T04:35:49.793Z,7.24
2023-01-03T04:38:19.136Z,6.80
2023-01-03T04:40:47.137Z,6.17
2023-01-03T04:43:32.924Z,5.69
2023-01-03T04:46:00.801Z,5.70
2023-01-03T04:48:28.754Z,5.84
2023-01-03T04:50:59.167Z,5.36
2023-01-03T04:53:29.708Z,4.90
2023-01-03T04:55:57.846Z,6.07
2023-01-03T04:58:26.299Z,6.34
2023-01-03T05:00:59.968Z,6.29
2023-01-03T05:03:28.276Z,4.90
2023-01-03T05:06:02.355Z,4.57
2023-01-03T05:08:31.840Z,5.44
2023-01-03T05:11:00.226Z,5.46
2023-01-03T05:13:28.124Z,5.35
2023-01-03T05:15:56.322Z,5.59
2023-01-03T05:18:24.339Z,5.64
2023-01-03T05:21:09.906Z,6.85
2023-01-03T05:23:57.124Z,6.81
2023-01-03T05:26:25.346Z,6.73
2023-01-03T05:31:41.548Z,5.22
2023-01-03T05:34:10.204Z,4.93
2023-01-03T05:36:38.147Z,4.42
2023-01-03T05:39:07.778Z,4.45
2023-01-03T05:41:53.698Z,4.90
2023-01-03T05:44:21.543Z,5.20
2023-01-03T05:46:50.139Z,4.73
2023-01-03T05:49:18.428Z,5.01
2023-01-03T05:51:46.710Z,5.26
2023-01-03T05:54:18.290Z,5.66
2023-01-03T05:56:46.227Z,5.60
2023-01-03T05:59:15.047Z,5.25
2023-01-03T06:01:43.049Z,5.18
2023-01-03T06:04:11.232Z,4.73
2023-01-03T06:06:39.079Z,4.93
2023-01-03T06:09:07.063Z,4.86
2023-01-03T06:11:36.672Z,4.75
2023-01-03T06:14:04.648Z,5.28
2023-01-03T06:16:50.215Z,5.57
2023-01-03T06:19:18.579Z,6.35
2023-01-03T06:21:46.449Z,6.68
2023-01-03T06:24:14.838Z,6.68
2023-01-03T06:26:44.068Z,7.73
2023-01-03T06:29:11.993Z,7.62
2023-01-03T06:31:40.556Z,7.12
2023-01-03T06:34:08.514Z,7.40
2023-01-03T06:36:37.594Z,8.37
2023-01-03T06:39:05.810Z,7.79
2023-01-03T06:41:33.739Z,7.57
2023-01-03T06:44:03.144Z,8.19
2023-01-03T06:46:54.376Z,8.94
2023-01-03T06:49:39.760Z,9.03
2023-01-03T06:52:33.146Z,8.06
2023-01-03T06:55:04.389Z,7.51
2023-01-03T06:57:32.865Z,7.09
2023-01-03T07:00:02.471Z,6.81
2023-01-03T07:02:30.409Z,6.11
2023-01-03T07:04:58.582Z,5.87
2023-01-03T07:07:26.626Z,6.22
2023-01-03T07:09:54.436Z,6.51
2023-01-03T07:12:40.048Z,6.67
2023-01-03T07:15:10.970Z,7.11
2023-01-03T07:17:38.869Z,6.73
2023-01-03T07:20:08.426Z,6.75
2023-01-03T07:22:36.303Z,6.42
2023-01-03T07:25:04.227Z,6.60
2023-01-03T07:27:32.125Z,6.26
2023-01-03T07:30:03.028Z,6.72
2023-01-03T07:32:32.219Z,6.93
2023-01-03T07:35:03.630Z,7.45
2023-01-03T07:37:31.438Z,7.87
2023-01-03T07:39:59.319Z,7.22
2023-01-03T07:42:44.811Z,8.29
2023-01-03T07:45:16.493Z,8.35
2023-01-03T07:47:46.855Z,8.96
2023-01-03T07:50:15.504Z,9.64
2023-01-03T07:52:43.426Z,9.06
2023-01-03T07:55:11.613Z,9.36
2023-01-03T07:57:39.475Z,9.82
2023-01-03T08:00:08.748Z,9.42
2023-01-03T08:02:37.532Z,9.49
2023-01-03T08:05:07.709Z,10.09
2023-01-03T08:07:36.863Z,12.07
2023-01-03T08:10:23.096Z,13.39
2023-01-03T08:13:10.654Z,13.86
2023-01-03T08:15:39.421Z,13.51
2023-01-03T08:18:07.820Z,15.17
2023-01-03T08:20:37.081Z,15.88
2023-01-03T08:23:05.487Z,16.17
2023-01-03T08:25:33.590Z,15.92
2023-01-03T08:28:02.994Z,15.32
2023-01-03T08:30:31.193Z,15.13
2023-01-03T08:33:03.532Z,14.29
2023-01-03T08:35:38.215Z,12.88
2023-01-03T08:38:10.551Z,13.24
2023-01-03T08:40:42.756Z,12.76
2023-01-03T08:43:15.749Z,12.18
2023-01-03T08:45:43.843Z,11.36
2023-01-03T08:48:13.233Z,11.15
2023-01-03T08:50:43.102Z,10.84
2023-01-03T08:53:11.132Z,11.03
2023-01-03T08:55:39.690Z,10.64
2023-01-03T08:58:09.634Z,10.04
2023-01-03T09:00:37.810Z,10.96
2023-01-03T09:03:06.758Z,11.89
2023-01-03T09:05:34.917Z,12.32
2023-01-03T09:08:04.148Z,11.57
2023-01-03T09:10:32.046Z,11.69
2023-01-03T09:12:59.884Z,11.19
2023-01-03T09:15:27.766Z,11.16
2023-01-03T09:17:55.622Z,11.05
2023-01-03T09:20:23.553Z,10.72
2023-01-03T09:22:51.629Z,10.16
2023-01-03T09:25:20.916Z,10.20
2023-01-03T09:27:50.385Z,9.77
2023-01-03T09:30:19.890Z,10.73
2023-01-03T09:32:50.999Z,11.07
2023-01-03T09:35:19.302Z,10.64
2023-01-03T09:37:49.123Z,10.49
2023-01-03T09:40:17.691Z,11.50
2023-01-03T09:43:04.395Z,11.18
2023-01-03T09:45:35.518Z,11.34
2023-01-03T09:48:06.316Z,10.87
2023-01-03T09:51:14.212Z,10.98
2023-01-03T09:53:55.254Z,9.10
2023-01-03T09:56:41.004Z,7.71
2023-01-03T09:59:33.283Z,8.07
2023-01-03T10:02:38.327Z,7.19
2023-01-03T10:05:33.640Z,6.96
2023-01-03T10:08:22.936Z,8.62
2023-01-03T10:11:04.863Z,8.01
2023-01-03T10:13:57.703Z,7.16
2023-01-03T10:16:41.731Z,6.55
2023-01-03T10:19:42.667Z,7.86
2023-01-03T10:22:14.509Z,7.72
2023-01-03T10:24:46.903Z,7.65
2023-01-03T10:27:17.800Z,8.05
2023-01-03T10:29:48.471Z,8.78
2023-01-03T10:32:37.859Z,8.46
2023-01-03T10:35:19.296Z,9.11
2023-01-03T10:37:48.674Z,9.26
2023-01-03T10:40:16.682Z,7.18
2023-01-03T10:42:47.124Z,6.40
2023-01-03T10:45:17.556Z,7.12
2023-01-03T10:47:59.712Z,8.10
2023-01-03T10:50:29.678Z,7.04
2023-01-03T10:53:02.060Z,6.50
2023-01-03T10:55:30.102Z,6.43
2023-01-03T10:58:03.630Z,6.89
2023-01-03T11:00:34.103Z,7.00
2023-01-03T11:03:17.323Z,6.77
2023-01-03T11:05:48.927Z,6.73
2023-01-03T11:08:21.083Z,5.97
2023-01-03T11:10:58.113Z,6.42
2023-01-03T11:13:32.508Z,6.20
2023-01-03T11:16:03.249Z,6.43
2023-01-03T11:18:33.047Z,6.41
2023-01-03T11:21:13.776Z,7.03
2023-01-03T11:24:02.352Z,8.09
2023-01-03T11:26:46.566Z,6.92
2023-01-03T11:29:37.113Z,5.96
2023-01-03T11:32:18.707Z,6.07
2023-01-03T11:35:22.815Z,5.91
2023-01-03T11:38:06.246Z,5.45
2023-01-03T11:40:49.866Z,5.72
2023-01-03T11:43:35.146Z,5.73
2023-01-03T11:46:41.841Z,5.66
2023-01-03T11:49:28.703Z,5.97
2023-01-03T11:52:19.814Z,5.53
2023-01-03T11:55:15.934Z,7.15
2023-01-03T11:57:56.913Z,6.82
2023-01-03T12:00:37.421Z,6.12
2023-01-03T12:03:12.937Z,5.91
2023-01-03T12:05:51.112Z,6.33
2023-01-03T12:08:49.567Z,4.98
2023-01-03T12:11:35.363Z,5.12
2023-01-03T12:14:20.577Z,4.51
2023-01-03T12:16:57.522Z,5.20
2023-01-03T12:19:41.241Z,5.00
2023-01-03T12:22:20.850Z,6.10
2023-01-03T12:25:04.413Z,5.51
2023-01-03T12:27:39.505Z,4.70
2023-01-03T12:30:28.568Z,5.76
2023-01-03T12:33:03.231Z,4.63
2023-01-03T12:35:39.832Z,4.96
2023-01-03T12:38:11.452Z,5.12
2023-01-03T12:40:52.546Z,4.12
2023-01-03T12:43:34.183Z,5.15
2023-01-03T12:46:13.082Z,4.72
2023-01-03T12:48:55.835Z,4.20
2023-01-03T12:51:26.236Z,4.08
2023-01-03T12:54:10.177Z,4.28
2023-01-03T12:57:02.247Z,4.16
2023-01-03T12:59:54.547Z,4.65
2023-01-03T13:02:35.339Z,5.22
2023-01-03T13:05:17.750Z,5.77
2023-01-03T13:07:54.530Z,5.05
2023-01-03T13:10:29.491Z,5.29
2023-01-03T13:13:03.247Z,4.99
2023-01-03T13:15:37.118Z,4.90
2023-01-03T13:18:31.839Z,4.44
2023-01-03T13:20:59.788Z,5.02
2023-01-03T13:23:34.778Z,4.70
2023-01-03T13:26:23.003Z,5.61
2023-01-03T13:28:53.376Z,5.58
2023-01-03T13:31:44.034Z,5.29
2023-01-03T13:34:34.109Z,5.62
2023-01-03T13:37:27.507Z,6.55
2023-01-03T13:40:12.449Z,9.98
2023-01-03T13:42:41.791Z,10.93
2023-01-03T13:45:55.380Z,7.73
2023-01-03T13:48:30.274Z,10.81
2023-01-03T13:51:21.903Z,7.47
2023-01-03T13:54:00.919Z,6.64
2023-01-03T13:56:32.299Z,5.48
2023-01-03T13:59:19.000Z,5.19
2023-01-03T14:02:02.720Z,5.05
2023-01-03T14:05:15.907Z,5.82
2023-01-03T14:08:07.993Z,5.10
2023-01-03T14:11:07.781Z,4.86
2023-01-03T14:13:39.816Z,4.66
2023-01-03T14:16:26.247Z,4.48
2023-01-03T14:19:12.269Z,4.45
2023-01-03T14:21:51.619Z,5.30
2023-01-03T14:24:26.358Z,5.52
2023-01-03T14:26:55.638Z,5.82
2023-01-03T14:29:27.038Z,4.96
2023-01-03T14:31:57.947Z,4.17
2023-01-03T14:34:33.121Z,3.60
2023-01-03T14:37:05.475Z,3.29
2023-01-03T14:42:03.616Z,3.30
2023-01-03T14:44:32.143Z,3.29
2023-01-03T14:47:04.123Z,3.59
2023-01-03T14:49:52.699Z,3.68
2023-01-03T14:52:30.747Z,4.23
2023-01-03T14:55:04.483Z,3.46
2023-01-03T14:57:37.967Z,3.65
2023-01-03T15:00:09.860Z,3.60
2023-01-03T15:02:41.985Z,3.84
2023-01-03T15:05:26.940Z,5.73
2023-01-03T15:07:57.146Z,7.86
2023-01-03T15:10:35.025Z,9.72
2023-01-03T15:13:05.093Z,10.13
2023-01-03T15:15:39.657Z,8.72
2023-01-03T15:18:10.114Z,6.69
2023-01-03T15:20:41.408Z,5.98
2023-01-03T15:23:29.961Z,5.59
2023-01-03T15:26:01.256Z,4.38
2023-01-03T15:28:31.496Z,4.19
2023-01-03T15:31:15.097Z,4.55
2023-01-03T15:33:44.310Z,7.92
2023-01-03T15:36:19.183Z,7.83
2023-01-03T15:38:50.644Z,6.01
2023-01-03T15:41:38.821Z,5.06
2023-01-03T15:44:08.271Z,5.93
2023-01-03T15:46:37.065Z,7.27
2023-01-03T15:49:07.783Z,14.01
2023-01-03T15:51:35.692Z,14.51
2023-01-03T15:54:05.138Z,10.21
2023-01-03T15:56:37.096Z,6.98
2023-01-03T15:59:10.472Z,6.59
2023-01-03T16:01:38.499Z,7.38
2023-01-03T16:04:06.592Z,9.85
2023-01-03T16:06:34.596Z,21.61
2023-01-03T16:09:03.888Z,11.93
2023-01-03T16:11:34.668Z,9.57
2023-01-03T16:14:05.772Z,10.15
2023-01-03T16:16:38.979Z,10.83
2023-01-03T16:19:08.506Z,12.65
2023-01-03T16:21:36.487Z,37.57
2023-01-03T16:24:05.954Z,48.74
2023-01-03T16:26:34.310Z,45.58
2023-01-03T16:29:02.247Z,37.13
2023-01-03T16:31:33.666Z,34.56
2023-01-03T16:34:03.603Z,44.43
2023-01-03T16:36:34.401Z,51.70
2023-01-03T16:39:03.270Z,30.95
2023-01-03T16:41:35.026Z,12.93
2023-01-03T16:44:03.244Z,8.57
2023-01-03T16:46:31.621Z,12.44
2023-01-03T16:49:01.197Z,24.00
2023-01-03T16:51:32.677Z,25.96
2023-01-03T16:54:03.713Z,16.76
2023-01-03T16:56:33.003Z,13.04
2023-01-03T16:59:00.987Z,14.05
2023-01-03T17:01:28.973Z,14.60
2023-01-03T17:03:57.019Z,15.81
2023-01-03T17:06:35.306Z,11.57
2023-01-03T17:09:12.217Z,8.86
2023-01-03T17:11:41.718Z,7.10
2023-01-03T17:14:18.474Z,6.22
2023-01-03T17:16:47.383Z,6.17
2023-01-03T17:22:04.786Z,7.57
2023-01-03T17:24:32.882Z,7.62
2023-01-03T17:27:04.723Z,8.30
2023-01-03T17:29:32.954Z,8.16
2023-01-03T17:32:00.910Z,8.00
2023-01-03T17:34:31.970Z,9.20
2023-01-03T17:37:01.922Z,10.62
2023-01-03T17:39:30.388Z,10.45
2023-01-03T17:42:13.557Z,10.75
2023-01-03T17:44:44.360Z,10.44
2023-01-03T17:47:42.590Z,9.42
2023-01-03T17:50:11.257Z,9.61
2023-01-03T17:52:39.963Z,9.88
2023-01-03T17:55:19.463Z,9.53
2023-01-03T17:57:48.119Z,8.43
2023-01-03T18:00:21.651Z,8.00
2023-01-03T18:02:50.241Z,7.92
2023-01-03T18:05:27.102Z,7.77
2023-01-03T18:07:58.760Z,10.34
2023-01-03T18:10:40.118Z,10.00
2023-01-03T18:13:22.006Z,9.51
2023-01-03T18:15:52.748Z,9.42
2023-01-03T18:18:24.208Z,10.06
2023-01-03T18:20:53.430Z,8.51
2023-01-03T18:23:27.901Z,7.92
2023-01-03T18:25:57.893Z,7.69
2023-01-03T18:28:27.856Z,8.16
2023-01-03T18:30:58.222Z,9.56
2023-01-03T18:33:26.385Z,14.91
2023-01-03T18:35:55.004Z,26.10
2023-01-03T18:38:30.555Z,20.76
2023-01-03T18:41:04.756Z,14.80
2023-01-03T18:43:34.775Z,17.82
2023-01-03T18:46:05.215Z,23.92
2023-01-03T18:48:33.158Z,20.85
2023-01-03T18:51:01.393Z,16.37
2023-01-03T18:53:33.151Z,12.20
2023-01-03T18:56:02.980Z,11.83
2023-01-03T18:58:35.557Z,11.98
2023-01-03T19:01:06.068Z,14.28
2023-01-03T19:03:36.025Z,18.71
2023-01-03T19:06:17.072Z,16.28
2023-01-03T19:08:45.111Z,15.63
2023-01-03T19:11:18.517Z,15.07
2023-01-03T19:13:54.874Z,13.72
2023-01-03T19:16:27.791Z,14.30
2023-01-03T19:18:56.136Z,13.82
2023-01-03T19:21:25.723Z,13.81
2023-01-03T19:24:01.537Z,13.38
2023-01-03T19:26:34.189Z,14.08
2023-01-03T19:29:06.312Z,14.42
2023-01-03T19:31:42.080Z,14.66
2023-01-03T19:34:18.060Z,16.06
2023-01-03T19:36:47.367Z,17.79
2023-01-03T19:39:19.620Z,17.37
2023-01-03T19:42:13.268Z,19.70
2023-01-03T19:44:42.227Z,20.04
2023-01-03T19:47:15.170Z,18.61
2023-01-03T19:49:44.084Z,17.53
2023-01-03T19:52:12.172Z,16.52
2023-01-03T19:54:40.662Z,19.53
2023-01-03T19:57:21.579Z,26.80
2023-01-03T19:59:54.449Z,27.27
2023-01-03T20:02:40.055Z,21.63
2023-01-03T20:05:16.163Z,21.34
2023-01-03T20:07:44.917Z,19.22
2023-01-03T20:10:21.099Z,21.69
2023-01-03T20:12:53.633Z,18.20
2023-01-03T20:15:25.356Z,20.87
2023-01-03T20:17:55.296Z,19.58
2023-01-03T20:20:26.162Z,17.40
2023-01-03T20:23:06.218Z,17.02
2023-01-03T20:25:37.485Z,18.45
2023-01-03T20:28:07.095Z,18.50
2023-01-03T20:30:35.846Z,20.79
2023-01-03T20:33:05.479Z,24.42
2023-01-03T20:38:28.302Z,21.36
2023-01-03T20:40:57.833Z,20.11
2023-01-03T20:43:26.454Z,19.75
2023-01-03T20:45:57.250Z,19.17
2023-01-03T20:48:27.030Z,20.56
2023-01-03T20:53:43.214Z,21.96
2023-01-03T20:56:14.711Z,21.52
2023-01-03T20:58:43.718Z,20.12
2023-01-03T21:01:11.969Z,23.45
2023-01-03T21:03:41.538Z,23.54
2023-01-03T21:06:19.300Z,21.10
2023-01-03T21:08:57.040Z,19.51
2023-01-03T21:11:28.034Z,20.19
2023-01-03T21:13:56.790Z,21.61
2023-01-03T21:16:33.505Z,25.18
2023-01-03T21:19:12.696Z,23.17
2023-01-03T21:21:42.144Z,21.57
2023-01-03T21:24:11.627Z,23.67
2023-01-03T21:26:39.892Z,22.15
2023-01-03T21:29:08.873Z,21.87
2023-01-03T21:31:39.697Z,24.59
2023-01-03T21:34:18.345Z,30.13
2023-01-03T21:36:46.983Z,24.15
2023-01-03T21:39:16.127Z,23.63
2023-01-03T21:42:04.721Z,24.92
2023-01-03T21:44:32.858Z,26.96
2023-01-03T21:47:00.902Z,26.58
2023-01-03T21:49:30.615Z,24.21
2023-01-03T21:51:58.583Z,24.96
2023-01-03T21:54:26.682Z,24.15
2023-01-03T21:56:54.666Z,22.59
2023-01-03T21:59:22.708Z,22.33
2023-01-03T22:02:08.107Z,21.65
2023-01-03T22:04:37.618Z,20.28
2023-01-03T22:07:06.047Z,20.76
2023-01-03T22:09:51.842Z,20.30
2023-01-03T22:12:20.702Z,19.84
2023-01-03T22:14:49.209Z,19.31
2023-01-03T22:17:18.104Z,20.69
2023-01-03T22:19:47.609Z,20.00
2023-01-03T22:22:15.809Z,19.03
2023-01-03T22:24:43.877Z,19.35
2023-01-03T22:27:11.841Z,19.56
2023-01-03T22:29:39.733Z,19.53
2023-01-03T22:32:10.319Z,19.48
2023-01-03T22:34:39.271Z,19.49
2023-01-03T22:37:09.005Z,18.99
2023-01-03T22:39:36.961Z,19.12
2023-01-03T22:42:05.248Z,19.01
2023-01-03T22:44:33.186Z,18.07
2023-01-03T22:47:01.724Z,18.77
2023-01-03T22:49:29.678Z,19.37
2023-01-03T22:51:57.816Z,18.67
2023-01-03T22:54:27.921Z,19.30
2023-01-03T22:56:57.239Z,19.87
2023-01-03T23:02:41.252Z,21.65
2023-01-03T23:05:10.258Z,21.93
2023-01-03T23:07:39.699Z,21.97
2023-01-03T23:10:10.920Z,23.58
2023-01-03T23:12:56.506Z,22.91
2023-01-03T23:15:25.060Z,23.58
2023-01-03T23:17:59.448Z,22.91
2023-01-03T23:20:30.091Z,23.25
2023-01-03T23:23:05.823Z,23.14
2023-01-03T23:25:36.988Z,22.45
2023-01-03T23:28:09.779Z,22.59
2023-01-03T23:30:37.832Z,21.09
2023-01-03T23:36:54.552Z,21.13
2023-01-03T23:39:22.764Z,20.62
2023-01-03T23:41:54.226Z,20.11
2023-01-03T23:44:22.217Z,21.14
2023-01-03T23:46:50.845Z,21.39
2023-01-03T23:49:19.025Z,21.10
2023-01-03T23:51:47.026Z,22.59
2023-01-03T23:54:15.167Z,24.12
2023-01-03T23:56:43.115Z,21.66
2023-01-03T23:59:12.596Z,21.47
